| time (UTC) | temp C | wind direction | speed KPH | gust KPH | rain 1hr cm | rain 24hr cm | rain mn cm | humidity % | barometer mb |
| 20260503200547 | 26 | 101 | 1.6 | 12.9 | 0.00 | 0.00 | 0.00 | 44 | 1012.7 |
| 20260503200056 | 25 | 106 | 1.6 | 12.9 | 0.00 | 0.00 | 0.00 | 45 | 1012.6 |
| 20260503195543 | 25 | 235 | 3.2 | 12.9 | 0.00 | 0.00 | 0.00 | 44 | 1012.8 |
| 20260503195041 | 26 | 277 | 3.2 | 6.4 | 0.00 | 0.00 | 0.00 | 44 | 1012.9 |
| 20260503194551 | 26 | 24 | 0.0 | 9.7 | 0.00 | 0.00 | 0.00 | 45 | 1013.0 |
| 20260503194041 | 26 | 0 | 1.6 | 11.3 | 0.00 | 0.00 | 0.00 | 46 | 1013.1 |
| 20260503193542 | 25 | 55 | 3.2 | 12.9 | 0.00 | 0.00 | 0.00 | 47 | 1013.1 |
| 20260503193059 | 25 | 44 | 3.2 | 12.9 | 0.00 | 0.00 | 0.00 | 50 | 1013.2 |
| 20260503192542 | 25 | 61 | 1.6 | 6.4 | 0.00 | 0.00 | 0.00 | 48 | 1013.3 |
| 20260503192043 | 25 | 95 | 3.2 | 6.4 | 0.00 | 0.00 | 0.00 | 49 | 1013.4 |
| 20260503191550 | 25 | 98 | 1.6 | 6.4 | 0.00 | 0.00 | 0.00 | 51 | 1013.5 |
| 20260503191040 | 24 | 102 | 3.2 | 8.0 | 0.00 | 0.00 | 0.00 | 52 | 1013.5 |
| 20260503190543 | 24 | 0 | 3.2 | 14.5 | 0.00 | 0.00 | 0.00 | 54 | 1013.5 |
| 20260503190054 | 23 | 92 | 3.2 | 14.5 | 0.00 | 0.00 | 0.00 | 54 | 1013.6 |
| 20260503185544 | 23 | 198 | 6.4 | 14.5 | 0.00 | 0.00 | 0.00 | 55 | 1013.7 |
| 20260503185046 | 24 | 63 | 4.8 | 11.3 | 0.00 | 0.00 | 0.00 | 54 | 1013.8 |
| 20260503184604 | 24 | 80 | 0.0 | 11.3 | 0.00 | 0.00 | 0.00 | 56 | 1013.7 |
| 20260503184043 | 23 | 111 | 3.2 | 11.3 | 0.00 | 0.00 | 0.00 | 56 | 1013.8 |
| 20260503183543 | 23 | 90 | 3.2 | 8.0 | 0.00 | 0.00 | 0.00 | 55 | 1014.0 |
| 20260503183107 | 23 | 77 | 1.6 | 9.7 | 0.00 | 0.00 | 0.00 | 59 | 1013.9 |
| 20260503182543 | 23 | 95 | 1.6 | 9.7 | 0.00 | 0.00 | 0.00 | 57 | 1013.9 |
| 20260503182041 | 23 | 94 | 3.2 | 9.7 | 0.00 | 0.00 | 0.00 | 55 | 1014.0 |
| 20260503181601 | 23 | 100 | 1.6 | 8.0 | 0.00 | 0.00 | 0.00 | 57 | 1013.9 |
| 20260503181043 | 23 | 85 | 3.2 | 9.7 | 0.00 | 0.00 | 0.00 | 56 | 1014.0 |
| 20260503180541 | 23 | 11 | 0.0 | 9.7 | 0.00 | 0.00 | 0.00 | 55 | 1014.0 |
| 20260503180055 | 22 | 175 | 3.2 | 9.7 | 0.00 | 0.00 | 0.00 | 53 | 1014.0 |
| 20260503175545 | 22 | 105 | 1.6 | 6.4 | 0.00 | 0.00 | 0.00 | 54 | 1014.1 |
| 20260503175043 | 22 | 61 | 1.6 | 9.7 | 0.00 | 0.00 | 0.00 | 56 | 1014.1 |
| 20260503174551 | 22 | 76 | 1.6 | 11.3 | 0.00 | 0.00 | 0.00 | 56 | 1014.1 |
| 20260503174041 | 22 | 315 | 3.2 | 11.3 | 0.00 | 0.00 | 0.00 | 55 | 1014.1 |
| 20260503173543 | 22 | 120 | 1.6 | 11.3 | 0.00 | 0.00 | 0.00 | 57 | 1014.1 |
| 20260503173059 | 22 | 174 | 1.6 | 11.3 | 0.00 | 0.00 | 0.00 | 58 | 1014.2 |
| 20260503172544 | 21 | 213 | 3.2 | 11.3 | 0.00 | 0.00 | 0.00 | 60 | 1014.3 |
| 20260503172042 | 21 | 306 | 3.2 | 11.3 | 0.00 | 0.00 | 0.00 | 57 | 1014.1 |
| 20260503171549 | 22 | 61 | 1.6 | 4.8 | 0.00 | 0.00 | 0.00 | 57 | 1014.1 |
| 20260503171040 | 22 | 221 | 0.0 | 0.0 | 0.00 | 0.00 | 0.00 | 58 | 1014.3 |
| 20260503170544 | 21 | 0 | 0.0 | 0.0 | 0.00 | 0.00 | 0.00 | 57 | 1014.2 |
| 20260503150541 | 10 | 0 | 0.0 | 0.0 | 0.00 | 0.00 | 0.00 | 99 | 1015.0 |
| 20260503131044 | 8 | 0 | 0.0 | 0.0 | 0.00 | 0.00 | 0.00 | 98 | 1015.0 |
| 20260503130543 | 8 | 0 | 0.0 | 0.0 | 0.00 | 0.00 | 0.00 | 98 | 1015.0 |
| 20260503110543 | 9 | 0 | 0.0 | 0.0 | 0.00 | 0.00 | 0.00 | 98 | 1015.4 |
| 20260503081627 | 11 | 0 | 0.0 | 0.0 | 0.00 | 0.00 | 0.00 | 96 | 1015.7 |
| 20260503081045 | 11 | 0 | 0.0 | 0.0 | 0.00 | 0.00 | 0.00 | 96 | 1015.7 |
| 20260503080543 | 11 | 0 | 0.0 | 0.0 | 0.00 | 0.00 | 0.00 | 96 | 1015.6 |
| 20260503080110 | 11 | 0 | 0.0 | 0.0 | 0.00 | 0.00 | 0.00 | 96 | 1015.6 |
| 20260503072544 | 11 | 0 | 0.0 | 0.0 | 0.00 | 0.00 | 0.00 | 96 | 1015.5 |
| 20260503072044 | 11 | 0 | 0.0 | 0.0 | 0.00 | 0.00 | 0.00 | 95 | 1015.5 |
| 20260503071549 | 11 | 0 | 0.0 | 0.0 | 0.00 | 0.00 | 0.00 | 96 | 1015.5 |
| 20260503071045 | 11 | 0 | 0.0 | 0.0 | 0.00 | 0.00 | 0.00 | 96 | 1015.5 |
| 20260503070546 | 11 | 0 | 0.0 | 0.0 | 0.00 | 0.00 | 0.00 | 95 | 1015.5 |
| 20260503055043 | 12 | 0 | 0.0 | 0.0 | 0.00 | 0.00 | 0.00 | 94 | 1015.4 |
| 20260503054554 | 12 | 0 | 0.0 | 0.0 | 0.00 | 0.00 | 0.00 | 94 | 1015.4 |
| 20260503054043 | 13 | 0 | 0.0 | 0.0 | 0.00 | 0.00 | 0.00 | 94 | 1015.4 |
| 20260503053542 | 13 | 0 | 0.0 | 0.0 | 0.00 | 0.00 | 0.00 | 94 | 1015.4 |
| 20260503053048 | 13 | 0 | 0.0 | 0.0 | 0.00 | 0.00 | 0.00 | 93 | 1015.5 |
| 20260503052545 | 13 | 0 | 0.0 | 0.0 | 0.00 | 0.00 | 0.00 | 93 | 1015.4 |
| 20260503052043 | 13 | 0 | 0.0 | 0.0 | 0.00 | 0.00 | 0.00 | 93 | 1015.5 |
| 20260503051548 | 13 | 0 | 0.0 | 0.0 | 0.00 | 0.00 | 0.00 | 93 | 1015.6 |
| 20260503051044 | 13 | 0 | 0.0 | 0.0 | 0.00 | 0.00 | 0.00 | 93 | 1015.4 |
| 20260503050545 | 13 | 0 | 0.0 | 0.0 | 0.00 | 0.00 | 0.00 | 92 | 1015.4 |
| 20260503050055 | 13 | 0 | 0.0 | 0.0 | 0.00 | 0.00 | 0.00 | 92 | 1015.4 |
| 20260503045545 | 13 | 0 | 0.0 | 0.0 | 0.00 | 0.00 | 0.00 | 92 | 1015.5 |
| 20260503045043 | 14 | 0 | 0.0 | 0.0 | 0.00 | 0.00 | 0.00 | 92 | 1015.5 |
| 20260503044552 | 14 | 0 | 0.0 | 0.0 | 0.00 | 0.00 | 0.00 | 92 | 1015.3 |
| 20260503044045 | 14 | 0 | 0.0 | 0.0 | 0.00 | 0.00 | 0.00 | 92 | 1015.4 |
| 20260503043543 | 14 | 0 | 0.0 | 0.0 | 0.00 | 0.00 | 0.00 | 92 | 1015.2 |
| 20260503043050 | 14 | 0 | 0.0 | 0.0 | 0.00 | 0.00 | 0.00 | 91 | 1015.2 |
| 20260503042543 | 15 | 0 | 0.0 | 0.0 | 0.00 | 0.00 | 0.00 | 91 | 1015.1 |
| 20260503042044 | 15 | 0 | 0.0 | 0.0 | 0.00 | 0.00 | 0.00 | 91 | 1015.1 |
| 20260503041549 | 15 | 0 | 0.0 | 0.0 | 0.00 | 0.00 | 0.00 | 90 | 1015.0 |
| 20260503041043 | 15 | 0 | 0.0 | 0.0 | 0.00 | 0.00 | 0.00 | 90 | 1014.9 |
| 20260503040545 | 15 | 0 | 0.0 | 0.0 | 0.00 | 0.00 | 0.00 | 90 | 1014.8 |
| 20260503040051 | 15 | 0 | 0.0 | 0.0 | 0.00 | 0.00 | 0.00 | 90 | 1014.7 |
| 20260503035547 | 15 | 0 | 0.0 | 0.0 | 0.00 | 0.00 | 0.00 | 89 | 1014.6 |
| 20260503035047 | 15 | 0 | 0.0 | 0.0 | 0.00 | 0.00 | 0.00 | 89 | 1014.6 |
| 20260503034553 | 16 | 0 | 0.0 | 0.0 | 0.00 | 0.00 | 0.00 | 88 | 1014.5 |
| 20260503034042 | 16 | 0 | 0.0 | 0.0 | 0.00 | 0.00 | 0.00 | 88 | 1014.3 |
| 20260503033546 | 16 | 0 | 0.0 | 0.0 | 0.00 | 0.00 | 0.00 | 87 | 1014.3 |
| 20260503033109 | 16 | 0 | 0.0 | 0.0 | 0.00 | 0.00 | 0.00 | 87 | 1014.2 |
| 20260503032544 | 16 | 0 | 0.0 | 0.0 | 0.00 | 0.00 | 0.00 | 86 | 1014.1 |
| 20260503032048 | 16 | 0 | 0.0 | 0.0 | 0.00 | 0.00 | 0.00 | 86 | 1014.2 |
| 20260503031556 | 17 | 0 | 0.0 | 0.0 | 0.00 | 0.00 | 0.00 | 85 | 1014.1 |
| 20260503031043 | 17 | 0 | 0.0 | 0.0 | 0.00 | 0.00 | 0.00 | 85 | 1014.0 |
| 20260503030545 | 17 | 0 | 0.0 | 0.0 | 0.00 | 0.00 | 0.00 | 84 | 1014.0 |
| 20260503030057 | 17 | 0 | 0.0 | 0.0 | 0.00 | 0.00 | 0.00 | 83 | 1013.7 |
| 20260503025544 | 17 | 0 | 0.0 | 0.0 | 0.00 | 0.00 | 0.00 | 84 | 1013.7 |
| 20260503025044 | 17 | 0 | 0.0 | 0.0 | 0.00 | 0.00 | 0.00 | 83 | 1013.6 |
| 20260503024607 | 17 | 0 | 0.0 | 0.0 | 0.00 | 0.00 | 0.00 | 83 | 1013.6 |
| 20260503024045 | 18 | 0 | 0.0 | 3.2 | 0.00 | 0.00 | 0.00 | 81 | 1013.6 |
| 20260503023547 | 18 | 0 | 0.0 | 3.2 | 0.00 | 0.00 | 0.00 | 81 | 1013.4 |
| 20260503023046 | 18 | 0 | 0.0 | 3.2 | 0.00 | 0.00 | 0.00 | 79 | 1013.4 |
| 20260503022614 | 18 | 200 | 1.6 | 3.2 | 0.00 | 0.00 | 0.00 | 79 | 1013.4 |
| 20260503022046 | 19 | 0 | 0.0 | 3.2 | 0.00 | 0.00 | 0.00 | 78 | 1013.4 |
| 20260503021559 | 19 | 0 | 0.0 | 3.2 | 0.00 | 0.00 | 0.00 | 77 | 1013.4 |
| 20260503021043 | 20 | 200 | 0.0 | 3.2 | 0.00 | 0.00 | 0.00 | 76 | 1013.4 |
| 20260503020545 | 20 | 200 | 0.0 | 3.2 | 0.00 | 0.00 | 0.00 | 75 | 1013.4 |
| 20260503020050 | 20 | 0 | 0.0 | 6.4 | 0.00 | 0.00 | 0.00 | 73 | 1013.3 |
| 20260503015548 | 21 | 200 | 0.0 | 8.0 | 0.00 | 0.00 | 0.00 | 70 | 1013.3 |
| 20260503015045 | 22 | 200 | 3.2 | 8.0 | 0.00 | 0.00 | 0.00 | 63 | 1013.3 |
| 20260503014552 | 21 | 0 | 0.0 | 8.0 | 0.00 | 0.00 | 0.00 | 70 | 1013.3 |
| 20260503014044 | 21 | 154 | 1.6 | 8.0 | 0.00 | 0.00 | 0.00 | 69 | 1013.2 |
| 20260503013546 | 21 | 199 | 1.6 | 4.8 | 0.00 | 0.00 | 0.00 | 66 | 1013.3 |
| 20260503013049 | 22 | 0 | 0.0 | 6.4 | 0.00 | 0.00 | 0.00 | 67 | 1013.1 |
| 20260503012549 | 22 | 88 | 0.0 | 6.4 | 0.00 | 0.00 | 0.00 | 68 | 1013.2 |
| 20260503012041 | 22 | 156 | 3.2 | 6.4 | 0.00 | 0.00 | 0.00 | 64 | 1013.2 |
| 20260503011557 | 22 | 89 | 0.0 | 8.0 | 0.00 | 0.00 | 0.00 | 65 | 1013.1 |
| 20260503011043 | 22 | 43 | 1.6 | 8.0 | 0.00 | 0.00 | 0.00 | 64 | 1013.2 |
| 20260503010544 | 23 | 116 | 4.8 | 11.3 | 0.00 | 0.00 | 0.00 | 60 | 1013.1 |
| 20260503010048 | 23 | 266 | 3.2 | 11.3 | 0.00 | 0.00 | 0.00 | 60 | 1013.1 |
| 20260503005544 | 23 | 0 | 1.6 | 6.4 | 0.00 | 0.00 | 0.00 | 62 | 1013.2 |
| 20260503005045 | 23 | 56 | 0.0 | 8.0 | 0.00 | 0.00 | 0.00 | 63 | 1013.2 |
| 20260503004554 | 23 | 94 | 3.2 | 8.0 | 0.00 | 0.00 | 0.00 | 59 | 1013.2 |
| 20260503004044 | 23 | 170 | 0.0 | 6.4 | 0.00 | 0.00 | 0.00 | 61 | 1013.3 |
| 20260503003545 | 23 | 99 | 1.6 | 6.4 | 0.00 | 0.00 | 0.00 | 59 | 1013.3 |
| 20260503003055 | 23 | 164 | 1.6 | 6.4 | 0.00 | 0.00 | 0.00 | 58 | 1013.3 |
| 20260503002547 | 23 | 0 | 1.6 | 6.4 | 0.00 | 0.00 | 0.00 | 58 | 1013.3 |
| 20260503002045 | 23 | 137 | 1.6 | 6.4 | 0.00 | 0.00 | 0.00 | 59 | 1013.4 |
| 20260503001559 | 23 | 186 | 1.6 | 9.7 | 0.00 | 0.00 | 0.00 | 57 | 1013.4 |
| 20260503001045 | 24 | 79 | 1.6 | 11.3 | 0.00 | 0.00 | 0.00 | 57 | 1013.4 |
| 20260503000544 | 24 | 256 | 3.2 | 11.3 | 0.00 | 0.00 | 0.00 | 57 | 1013.5 |
| 20260503000104 | 24 | 80 | 1.6 | 14.5 | 0.00 | 0.00 | 0.00 | 57 | 1013.5 |
| 20260502235544 | 24 | 9 | 3.2 | 14.5 | 0.00 | 0.00 | 0.00 | 56 | 1013.4 |
| 20260502235044 | 24 | 289 | 0.0 | 6.4 | 0.00 | 0.00 | 0.00 | 59 | 1013.7 |
| 20260502234608 | 23 | 68 | 3.2 | 9.7 | 0.00 | 0.00 | 0.00 | 57 | 1013.6 |
| 20260502234045 | 23 | 0 | 1.6 | 9.7 | 0.00 | 0.00 | 0.00 | 56 | 1013.5 |
| 20260502233545 | 24 | 294 | 1.6 | 9.7 | 0.00 | 0.00 | 0.00 | 55 | 1013.7 |
| 20260502233109 | 23 | 0 | 3.2 | 9.7 | 0.00 | 0.00 | 0.00 | 55 | 1013.7 |
| 20260502232543 | 24 | 123 | 0.0 | 8.0 | 0.00 | 0.00 | 0.00 | 58 | 1013.8 |
| 20260502232044 | 23 | 202 | 1.6 | 9.7 | 0.00 | 0.00 | 0.00 | 56 | 1013.8 |
| 20260502231604 | 23 | 146 | 3.2 | 9.7 | 0.00 | 0.00 | 0.00 | 55 | 1013.8 |
| 20260502231046 | 23 | 281 | 3.2 | 9.7 | 0.00 | 0.00 | 0.00 | 55 | 1013.8 |
| 20260502230543 | 24 | 347 | 1.6 | 9.7 | 0.00 | 0.00 | 0.00 | 55 | 1013.9 |
| 20260502230053 | 23 | 176 | 0.0 | 11.3 | 0.00 | 0.00 | 0.00 | 55 | 1013.9 |
| 20260502225548 | 23 | 98 | 3.2 | 11.3 | 0.00 | 0.00 | 0.00 | 55 | 1014.2 |
| 20260502225045 | 23 | 94 | 1.6 | 19.3 | 0.00 | 0.00 | 0.00 | 55 | 1014.1 |
| 20260502224546 | 23 | 117 | 4.8 | 19.3 | 0.00 | 0.00 | 0.00 | 56 | 1014.3 |
| 20260502224045 | 23 | 146 | 4.8 | 19.3 | 0.00 | 0.00 | 0.00 | 56 | 1014.4 |
| 20260502223544 | 24 | 199 | 1.6 | 6.4 | 0.00 | 0.00 | 0.00 | 55 | 1014.4 |
| 20260502223055 | 23 | 0 | 0.0 | 8.0 | 0.00 | 0.00 | 0.00 | 57 | 1014.5 |
| 20260502222545 | 23 | 178 | 1.6 | 9.7 | 0.00 | 0.00 | 0.00 | 57 | 1014.5 |
| 20260502222042 | 23 | 0 | 1.6 | 9.7 | 0.00 | 0.00 | 0.00 | 56 | 1014.6 |
| 20260502221601 | 23 | 211 | 0.0 | 6.4 | 0.00 | 0.00 | 0.00 | 56 | 1014.6 |
| 20260502221044 | 23 | 0 | 1.6 | 6.4 | 0.00 | 0.00 | 0.00 | 57 | 1014.7 |
| 20260502220543 | 23 | 0 | 1.6 | 9.7 | 0.00 | 0.00 | 0.00 | 57 | 1014.7 |
| 20260502220051 | 23 | 88 | 3.2 | 9.7 | 0.00 | 0.00 | 0.00 | 57 | 1014.8 |
| 20260502215542 | 23 | 97 | 0.0 | 6.4 | 0.00 | 0.00 | 0.00 | 59 | 1014.9 |
| 20260502215044 | 22 | 82 | 1.6 | 12.9 | 0.00 | 0.00 | 0.00 | 57 | 1015.0 |
| 20260502214554 | 22 | 109 | 1.6 | 12.9 | 0.00 | 0.00 | 0.00 | 57 | 1014.9 |
| 20260502214045 | 22 | 127 | 3.2 | 14.5 | 0.00 | 0.00 | 0.00 | 57 | 1014.9 |
| 20260502213543 | 22 | 144 | 1.6 | 14.5 | 0.00 | 0.00 | 0.00 | 58 | 1015.1 |
| 20260502213054 | 22 | 188 | 4.8 | 12.9 | 0.00 | 0.00 | 0.00 | 59 | 1015.1 |
| 20260502212544 | 22 | 132 | 0.0 | 6.4 | 0.00 | 0.00 | 0.00 | 60 | 1015.2 |
| 20260502212044 | 22 | 78 | 1.6 | 14.5 | 0.00 | 0.00 | 0.00 | 59 | 1015.1 |
| 20260502211554 | 22 | 170 | 1.6 | 14.5 | 0.00 | 0.00 | 0.00 | 60 | 1015.3 |
| 20260502211047 | 22 | 80 | 4.8 | 14.5 | 0.00 | 0.00 | 0.00 | 60 | 1015.3 |
| 20260502210545 | 22 | 244 | 3.2 | 11.3 | 0.00 | 0.00 | 0.00 | 59 | 1015.3 |
| 20260502210049 | 22 | 88 | 3.2 | 6.4 | 0.00 | 0.00 | 0.00 | 60 | 1015.4 |
| 20260502205545 | 22 | 196 | 1.6 | 6.4 | 0.00 | 0.00 | 0.00 | 62 | 1015.3 |
| 20260502205043 | 22 | 122 | 1.6 | 4.8 | 0.00 | 0.00 | 0.00 | 59 | 1015.4 |
| 20260502204552 | 21 | 107 | 1.6 | 11.3 | 0.00 | 0.00 | 0.00 | 60 | 1015.4 |
| 20260502204044 | 21 | 200 | 1.6 | 11.3 | 0.00 | 0.00 | 0.00 | 60 | 1015.5 |
| 20260502203545 | 21 | 81 | 4.8 | 11.3 | 0.00 | 0.00 | 0.00 | 59 | 1015.6 |
| 20260502203055 | 21 | 89 | 4.8 | 9.7 | 0.00 | 0.00 | 0.00 | 58 | 1015.5 |
| 20260502202541 | 21 | 360 | 3.2 | 9.7 | 0.00 | 0.00 | 0.00 | 58 | 1015.6 |
| 20260502202041 | 21 | 61 | 0.0 | 9.7 | 0.00 | 0.00 | 0.00 | 59 | 1015.6 |
| 20260502201554 | 21 | 110 | 1.6 | 9.7 | 0.00 | 0.00 | 0.00 | 57 | 1015.7 |
| 20260502201041 | 22 | 0 | 0.0 | 9.7 | 0.00 | 0.00 | 0.00 | 60 | 1015.7 |